メインページ
METAR-TAF:

METAR-TAF

空港 :

プレジデント・ジュセリノ・クビシェッキ国際空港

ブラジリア, ブラジリア連邦直轄区, ブラジル

緯度: 15-52S, 経度: 047-56W, 海抜: 1061m

現時点の気象観測

当レポートは25分前の21:00(UTC)に作成
南/南東の風 3kt
気温 21°C
湿度 60%
気圧 1024 hPa
視程10km以上
高度3500ftの雲はほとんどない
高度4000ftの雲はほとんどない, 塔状積雲.
高度10000ftの雲は散在している

METAR: SBBR 162100Z 16003KT 9999 FEW035 FEW040TCU SCT100 21/13 Q1024

時間: 18:25 (21:25 UTC)

予報

当レポートは5時間25分前の16:00(UTC)に作成
予報は16日の 18時(UTC)から 17日の 18時(UTC)まで有効
の風 5kt
視程: 8000m
確率 40% :
16日の 18時(UTC)から 17日の 06時(UTC)まで一時的に
高度4500ftの雲はほとんどない, 積乱雲.
激しい雷雨, 雨
17日の 01時(UTC)から 17日の 03時(UTC)まで徐々に
西/北西の風 5kt
確率 40% :
17日の 06時(UTC)から 17日の 12時(UTC)まで一時的に
高度4000ftの雲はほとんどない, 塔状積雲.
17日の 15時(UTC)から 17日の 17時(UTC)まで徐々に
の風 5kt

TAF: SBBR 161600Z 1618/1718 09005KT 8000 NSC TX24/1618Z TN17/1707Z PROB40 TEMPO 1618/1706 TSRA FEW045CB BECMG 1701/1703 29005KT PROB40 TEMPO 1706/1712 RA FEW040TCU BECMG 1715/1717 08005KT RMK PDB

4,000以上の空港の気象観測と天気予報(METAR報とTAF報)

利用可能な観測所は地図上に黄色い丸と赤い丸で示す。

丸の上にカーソルを重ねると観測所名を参照できる。

次にクリックすると気象観測と天気予報を参照できる。

マップの切り替え:黒色「×」印の緑ボタンをクリックして拡大、「-」印の緑ボタンをクリックして縮小、緑色の三角印をクリックして隣りの地図に切り替え


METAR-TAF: